Terminal Aerodrome Forecast
Issued by NWS

Home | Current Version | Previous Version | Text Only | Print | Product List | Glossary Off
Versions: 1 2 3 4 5 6 7 8 9 10 11 12 13 14 15 16 17 18 19 20

000
FTUS43 KICT 301540 AAA
TAFRSL
TAF AMD
KRSL 301540Z 3016/0112 01020G30KT 3SM -DZ BR SCT007 OVC015
      TEMPO 3017/3019 1SM -RASN BR OVC007
     FM301900 36027G38KT 3SM -RASN BR OVC007
     FM010000 33028G38KT 6SM -SN BR OVC008
     FM010500 31020G30KT P6SM OVC015=

USA.gov is the U.S. government's official web portal to all federal, state and local government web resources and services.